sensor_id;sensor_type;location;lat;lon;timestamp;temperature;humidity
51327;DHT22;37412;52.836;6.362;2023-04-03T00:01:36;2.40;99.90
51327;DHT22;37412;52.836;6.362;2023-04-03T00:04:23;2.40;99.90
51327;DHT22;37412;52.836;6.362;2023-04-03T00:07:10;2.30;99.90
51327;DHT22;37412;52.836;6.362;2023-04-03T00:09:58;2.30;99.90
51327;DHT22;37412;52.836;6.362;2023-04-03T00:12:44;2.30;99.90
51327;DHT22;37412;52.836;6.362;2023-04-03T00:15:30;2.30;99.90
51327;DHT22;37412;52.836;6.362;2023-04-03T00:18:16;2.30;99.90
51327;DHT22;37412;52.836;6.362;2023-04-03T00:21:02;2.20;99.90
51327;DHT22;37412;52.836;6.362;2023-04-03T00:23:48;2.20;99.90
51327;DHT22;37412;52.836;6.362;2023-04-03T00:26:34;2.20;99.90
51327;DHT22;37412;52.836;6.362;2023-04-03T00:29:20;2.10;99.90
51327;DHT22;37412;52.836;6.362;2023-04-03T00:32:07;2.10;99.90
51327;DHT22;37412;52.836;6.362;2023-04-03T00:34:53;2.00;99.90
51327;DHT22;37412;52.836;6.362;2023-04-03T00:37:43;2.00;99.90
51327;DHT22;37412;52.836;6.362;2023-04-03T00:40:37;2.00;99.90
51327;DHT22;37412;52.836;6.362;2023-04-03T00:43:25;2.00;99.90
51327;DHT22;37412;52.836;6.362;2023-04-03T00:46:12;1.90;99.90
51327;DHT22;37412;52.836;6.362;2023-04-03T00:48:58;1.90;99.90
51327;DHT22;37412;52.836;6.362;2023-04-03T00:51:44;1.90;99.90
51327;DHT22;37412;52.836;6.362;2023-04-03T00:54:30;1.80;99.90
51327;DHT22;37412;52.836;6.362;2023-04-03T00:57:16;1.80;99.90
51327;DHT22;37412;52.836;6.362;2023-04-03T01:00:09;1.80;99.90
51327;DHT22;37412;52.836;6.362;2023-04-03T01:02:56;1.80;99.90
51327;DHT22;37412;52.836;6.362;2023-04-03T01:05:42;1.80;99.90
51327;DHT22;37412;52.836;6.362;2023-04-03T01:08:28;1.70;99.90
51327;DHT22;37412;52.836;6.362;2023-04-03T01:11:14;1.70;99.90
51327;DHT22;37412;52.836;6.362;2023-04-03T01:14:00;1.70;99.90
51327;DHT22;37412;52.836;6.362;2023-04-03T01:16:53;2.50;99.90
51327;DHT22;37412;52.836;6.362;2023-04-03T01:19:42;1.60;99.90
51327;DHT22;37412;52.836;6.362;2023-04-03T01:22:44;1.60;99.90
51327;DHT22;37412;52.836;6.362;2023-04-03T01:25:34;1.60;99.90
51327;DHT22;37412;52.836;6.362;2023-04-03T01:28:28;1.60;99.90
51327;DHT22;37412;52.836;6.362;2023-04-03T01:34:06;1.60;99.90
51327;DHT22;37412;52.836;6.362;2023-04-03T01:36:52;1.60;99.90
51327;DHT22;37412;52.836;6.362;2023-04-03T01:39:38;1.50;99.90
51327;DHT22;37412;52.836;6.362;2023-04-03T01:42:25;1.50;99.90
51327;DHT22;37412;52.836;6.362;2023-04-03T01:45:11;1.40;99.90
51327;DHT22;37412;52.836;6.362;2023-04-03T01:47:57;1.40;99.90
51327;DHT22;37412;52.836;6.362;2023-04-03T01:50:42;1.40;99.90
51327;DHT22;37412;52.836;6.362;2023-04-03T01:53:28;1.40;99.90
51327;DHT22;37412;52.836;6.362;2023-04-03T01:56:14;1.30;99.90
51327;DHT22;37412;52.836;6.362;2023-04-03T01:59:01;1.30;99.90
51327;DHT22;37412;52.836;6.362;2023-04-03T02:01:46;1.30;99.90
51327;DHT22;37412;52.836;6.362;2023-04-03T02:04:32;1.30;99.90
51327;DHT22;37412;52.836;6.362;2023-04-03T02:07:18;1.30;99.90
51327;DHT22;37412;52.836;6.362;2023-04-03T02:10:04;1.20;99.90
51327;DHT22;37412;52.836;6.362;2023-04-03T02:12:51;1.20;99.90
51327;DHT22;37412;52.836;6.362;2023-04-03T02:15:40;1.20;99.90
51327;DHT22;37412;52.836;6.362;2023-04-03T02:18:25;1.20;99.90
51327;DHT22;37412;52.836;6.362;2023-04-03T02:21:11;1.20;99.90
51327;DHT22;37412;52.836;6.362;2023-04-03T02:23:57;1.10;99.90
51327;DHT22;37412;52.836;6.362;2023-04-03T02:26:43;1.10;99.90
51327;DHT22;37412;52.836;6.362;2023-04-03T02:29:29;1.10;99.90
51327;DHT22;37412;52.836;6.362;2023-04-03T02:32:15;1.10;99.90
51327;DHT22;37412;52.836;6.362;2023-04-03T02:35:01;2.00;99.90
51327;DHT22;37412;52.836;6.362;2023-04-03T02:37:47;1.10;99.90
51327;DHT22;37412;52.836;6.362;2023-04-03T02:40:33;1.10;99.90
51327;DHT22;37412;52.836;6.362;2023-04-03T02:43:19;1.00;99.90
51327;DHT22;37412;52.836;6.362;2023-04-03T02:46:05;1.00;99.90
51327;DHT22;37412;52.836;6.362;2023-04-03T02:48:51;0.90;99.90
51327;DHT22;37412;52.836;6.362;2023-04-03T02:51:37;0.90;99.90
51327;DHT22;37412;52.836;6.362;2023-04-03T02:54:23;0.80;99.90
51327;DHT22;37412;52.836;6.362;2023-04-03T02:57:13;0.90;99.90
51327;DHT22;37412;52.836;6.362;2023-04-03T02:59:59;0.80;99.90
51327;DHT22;37412;52.836;6.362;2023-04-03T03:02:45;0.80;99.90
51327;DHT22;37412;52.836;6.362;2023-04-03T03:05:31;0.80;99.90
51327;DHT22;37412;52.836;6.362;2023-04-03T03:08:19;0.80;99.90
51327;DHT22;37412;52.836;6.362;2023-04-03T03:11:05;0.80;99.90
51327;DHT22;37412;52.836;6.362;2023-04-03T03:13:51;0.80;99.90
51327;DHT22;37412;52.836;6.362;2023-04-03T03:16:37;1.90;99.90
51327;DHT22;37412;52.836;6.362;2023-04-03T03:19:23;0.80;99.90
51327;DHT22;37412;52.836;6.362;2023-04-03T03:22:09;0.70;99.90
51327;DHT22;37412;52.836;6.362;2023-04-03T03:24:56;0.70;99.90
51327;DHT22;37412;52.836;6.362;2023-04-03T03:27:41;0.70;99.90
51327;DHT22;37412;52.836;6.362;2023-04-03T03:30:27;0.70;99.90
51327;DHT22;37412;52.836;6.362;2023-04-03T03:33:13;0.60;99.90
51327;DHT22;37412;52.836;6.362;2023-04-03T03:36:00;0.60;99.90
51327;DHT22;37412;52.836;6.362;2023-04-03T03:38:46;0.60;99.90
51327;DHT22;37412;52.836;6.362;2023-04-03T03:41:32;0.50;99.90
51327;DHT22;37412;52.836;6.362;2023-04-03T03:44:18;0.50;99.90
51327;DHT22;37412;52.836;6.362;2023-04-03T03:47:04;0.50;99.90
51327;DHT22;37412;52.836;6.362;2023-04-03T03:49:51;0.40;99.90
51327;DHT22;37412;52.836;6.362;2023-04-03T03:52:38;0.40;99.90
51327;DHT22;37412;52.836;6.362;2023-04-03T03:55:24;0.40;99.90
51327;DHT22;37412;52.836;6.362;2023-04-03T03:58:11;0.30;99.90
51327;DHT22;37412;52.836;6.362;2023-04-03T04:00:57;0.30;99.90
51327;DHT22;37412;52.836;6.362;2023-04-03T04:03:45;0.30;99.90
51327;DHT22;37412;52.836;6.362;2023-04-03T04:06:31;0.30;99.90
51327;DHT22;37412;52.836;6.362;2023-04-03T04:09:17;0.20;99.90
51327;DHT22;37412;52.836;6.362;2023-04-03T04:12:04;0.20;99.90
51327;DHT22;37412;52.836;6.362;2023-04-03T04:14:50;0.20;99.90
51327;DHT22;37412;52.836;6.362;2023-04-03T04:17:36;0.10;99.90
51327;DHT22;37412;52.836;6.362;2023-04-03T04:20:22;0.10;99.90
51327;DHT22;37412;52.836;6.362;2023-04-03T04:23:09;0.00;99.90
51327;DHT22;37412;52.836;6.362;2023-04-03T04:25:55;0.00;99.90
51327;DHT22;37412;52.836;6.362;2023-04-03T04:28:41;-0.10;99.90
51327;DHT22;37412;52.836;6.362;2023-04-03T04:31:27;-0.10;99.90
51327;DHT22;37412;52.836;6.362;2023-04-03T04:34:13;-0.10;99.90
51327;DHT22;37412;52.836;6.362;2023-04-03T04:36:59;0.10;99.90
51327;DHT22;37412;52.836;6.362;2023-04-03T04:39:45;-0.20;99.90
51327;DHT22;37412;52.836;6.362;2023-04-03T04:42:31;-0.20;99.90
51327;DHT22;37412;52.836;6.362;2023-04-03T04:45:17;-0.20;99.90
51327;DHT22;37412;52.836;6.362;2023-04-03T04:48:03;-0.20;99.90
51327;DHT22;37412;52.836;6.362;2023-04-03T04:50:49;-0.20;99.90
51327;DHT22;37412;52.836;6.362;2023-04-03T04:53:35;-0.20;99.90
51327;DHT22;37412;52.836;6.362;2023-04-03T04:56:21;-0.20;99.90
51327;DHT22;37412;52.836;6.362;2023-04-03T04:59:07;-0.30;99.90
51327;DHT22;37412;52.836;6.362;2023-04-03T05:01:53;-0.30;99.90
51327;DHT22;37412;52.836;6.362;2023-04-03T05:04:42;-0.30;99.90
51327;DHT22;37412;52.836;6.362;2023-04-03T05:07:28;-0.30;99.90
51327;DHT22;37412;52.836;6.362;2023-04-03T05:10:14;-0.30;99.90
51327;DHT22;37412;52.836;6.362;2023-04-03T05:13:00;-0.30;99.90
51327;DHT22;37412;52.836;6.362;2023-04-03T05:15:46;-0.30;99.90
51327;DHT22;37412;52.836;6.362;2023-04-03T05:18:35;-0.30;99.90
51327;DHT22;37412;52.836;6.362;2023-04-03T05:21:21;-0.30;99.90
51327;DHT22;37412;52.836;6.362;2023-04-03T05:24:08;-0.30;99.90
51327;DHT22;37412;52.836;6.362;2023-04-03T05:26:55;-0.40;99.90
51327;DHT22;37412;52.836;6.362;2023-04-03T05:29:40;-0.40;99.90
51327;DHT22;37412;52.836;6.362;2023-04-03T05:32:29;-0.40;99.90
51327;DHT22;37412;52.836;6.362;2023-04-03T05:35:15;-0.40;99.90
51327;DHT22;37412;52.836;6.362;2023-04-03T05:38:01;-0.40;99.90
51327;DHT22;37412;52.836;6.362;2023-04-03T05:40:47;-0.40;99.90
51327;DHT22;37412;52.836;6.362;2023-04-03T05:43:33;-0.40;99.90
51327;DHT22;37412;52.836;6.362;2023-04-03T05:46:20;-0.40;99.90
51327;DHT22;37412;52.836;6.362;2023-04-03T05:49:06;-0.40;99.90
51327;DHT22;37412;52.836;6.362;2023-04-03T05:51:52;-0.40;99.90
51327;DHT22;37412;52.836;6.362;2023-04-03T05:54:38;-0.30;99.90
51327;DHT22;37412;52.836;6.362;2023-04-03T05:57:24;-0.30;99.90
51327;DHT22;37412;52.836;6.362;2023-04-03T06:00:13;-0.30;99.90
51327;DHT22;37412;52.836;6.362;2023-04-03T06:03:01;-0.20;99.90
51327;DHT22;37412;52.836;6.362;2023-04-03T06:05:47;-0.20;99.90
51327;DHT22;37412;52.836;6.362;2023-04-03T06:08:33;-0.20;99.90
51327;DHT22;37412;52.836;6.362;2023-04-03T06:11:21;-0.10;99.90
51327;DHT22;37412;52.836;6.362;2023-04-03T06:14:08;-0.10;99.90
51327;DHT22;37412;52.836;6.362;2023-04-03T06:16:54;0.00;99.90
51327;DHT22;37412;52.836;6.362;2023-04-03T06:19:41;0.00;99.90
51327;DHT22;37412;52.836;6.362;2023-04-03T06:22:27;0.60;99.90
51327;DHT22;37412;52.836;6.362;2023-04-03T06:25:15;0.10;99.90
51327;DHT22;37412;52.836;6.362;2023-04-03T06:28:03;0.20;99.90
51327;DHT22;37412;52.836;6.362;2023-04-03T06:30:49;0.20;99.90
51327;DHT22;37412;52.836;6.362;2023-04-03T06:33:35;0.30;99.90
51327;DHT22;37412;52.836;6.362;2023-04-03T06:36:21;0.40;99.90
51327;DHT22;37412;52.836;6.362;2023-04-03T06:39:08;0.50;99.90
51327;DHT22;37412;52.836;6.362;2023-04-03T06:41:55;0.60;99.90
51327;DHT22;37412;52.836;6.362;2023-04-03T06:44:41;0.70;99.90
51327;DHT22;37412;52.836;6.362;2023-04-03T06:47:26;1.30;99.90
51327;DHT22;37412;52.836;6.362;2023-04-03T06:50:12;2.30;99.90
51327;DHT22;37412;52.836;6.362;2023-04-03T06:53:00;3.40;99.90
51327;DHT22;37412;52.836;6.362;2023-04-03T06:55:46;4.30;99.90
51327;DHT22;37412;52.836;6.362;2023-04-03T06:58:33;4.70;99.90
51327;DHT22;37412;52.836;6.362;2023-04-03T07:01:18;4.90;99.90
51327;DHT22;37412;52.836;6.362;2023-04-03T07:04:04;4.70;99.90
51327;DHT22;37412;52.836;6.362;2023-04-03T07:06:51;4.70;99.90
51327;DHT22;37412;52.836;6.362;2023-04-03T07:09:38;4.50;99.90
51327;DHT22;37412;52.836;6.362;2023-04-03T07:12:23;4.50;99.90
51327;DHT22;37412;52.836;6.362;2023-04-03T07:15:10;4.50;99.90
51327;DHT22;37412;52.836;6.362;2023-04-03T07:17:57;4.40;99.90
51327;DHT22;37412;52.836;6.362;2023-04-03T07:20:43;4.80;99.90
51327;DHT22;37412;52.836;6.362;2023-04-03T07:23:29;4.80;99.90
51327;DHT22;37412;52.836;6.362;2023-04-03T07:26:15;4.80;99.90
51327;DHT22;37412;52.836;6.362;2023-04-03T07:29:01;4.70;99.90
51327;DHT22;37412;52.836;6.362;2023-04-03T07:31:47;5.00;99.90
51327;DHT22;37412;52.836;6.362;2023-04-03T07:34:33;5.40;99.90
51327;DHT22;37412;52.836;6.362;2023-04-03T07:37:19;5.80;99.90
51327;DHT22;37412;52.836;6.362;2023-04-03T07:40:06;6.40;99.90
51327;DHT22;37412;52.836;6.362;2023-04-03T07:42:52;6.90;99.90
51327;DHT22;37412;52.836;6.362;2023-04-03T07:45:38;7.90;99.90
51327;DHT22;37412;52.836;6.362;2023-04-03T07:48:27;9.30;99.90
51327;DHT22;37412;52.836;6.362;2023-04-03T07:51:13;10.60;99.90
51327;DHT22;37412;52.836;6.362;2023-04-03T07:53:59;11.50;99.90
51327;DHT22;37412;52.836;6.362;2023-04-03T07:56:45;12.30;99.90
51327;DHT22;37412;52.836;6.362;2023-04-03T07:59:30;12.90;94.60
51327;DHT22;37412;52.836;6.362;2023-04-03T08:02:16;13.20;92.00
51327;DHT22;37412;52.836;6.362;2023-04-03T08:05:02;13.70;93.70
51327;DHT22;37412;52.836;6.362;2023-04-03T08:07:49;13.90;91.70
51327;DHT22;37412;52.836;6.362;2023-04-03T08:10:34;14.10;86.30
51327;DHT22;37412;52.836;6.362;2023-04-03T08:13:21;14.30;88.10
51327;DHT22;37412;52.836;6.362;2023-04-03T08:18:55;15.20;89.90
51327;DHT22;37412;52.836;6.362;2023-04-03T08:21:41;15.50;86.70
51327;DHT22;37412;52.836;6.362;2023-04-03T08:24:27;15.80;82.60
51327;DHT22;37412;52.836;6.362;2023-04-03T08:27:13;16.00;78.90
51327;DHT22;37412;52.836;6.362;2023-04-03T08:29:59;16.20;79.50
51327;DHT22;37412;52.836;6.362;2023-04-03T08:32:45;16.50;79.30
51327;DHT22;37412;52.836;6.362;2023-04-03T08:35:31;16.50;75.50
51327;DHT22;37412;52.836;6.362;2023-04-03T08:38:17;16.70;76.80
51327;DHT22;37412;52.836;6.362;2023-04-03T08:41:04;17.00;76.10
51327;DHT22;37412;52.836;6.362;2023-04-03T08:47:20;17.40;73.00
51327;DHT22;37412;52.836;6.362;2023-04-03T08:50:19;17.60;72.50
51327;DHT22;37412;52.836;6.362;2023-04-03T08:53:14;17.60;71.30
51327;DHT22;37412;52.836;6.362;2023-04-03T08:56:02;17.60;69.70
51327;DHT22;37412;52.836;6.362;2023-04-03T08:59:00;18.00;72.70
51327;DHT22;37412;52.836;6.362;2023-04-03T09:01:47;18.30;69.60
51327;DHT22;37412;52.836;6.362;2023-04-03T09:04:33;18.50;67.70
51327;DHT22;37412;52.836;6.362;2023-04-03T09:07:53;18.50;69.10
51327;DHT22;37412;52.836;6.362;2023-04-03T09:10:43;18.60;67.40
51327;DHT22;37412;52.836;6.362;2023-04-03T09:26:19;18.80;64.30
51327;DHT22;37412;52.836;6.362;2023-04-03T09:29:08;19.10;66.00
51327;DHT22;37412;52.836;6.362;2023-04-03T09:32:02;19.20;62.00
51327;DHT22;37412;52.836;6.362;2023-04-03T09:34:49;19.10;62.90
51327;DHT22;37412;52.836;6.362;2023-04-03T09:46:31;18.80;60.20
51327;DHT22;37412;52.836;6.362;2023-04-03T09:49:18;17.60;59.60
51327;DHT22;37412;52.836;6.362;2023-04-03T09:52:24;16.40;60.30
51327;DHT22;37412;52.836;6.362;2023-04-03T09:55:23;15.80;62.70
51327;DHT22;37412;52.836;6.362;2023-04-03T09:58:27;15.40;63.30
51327;DHT22;37412;52.836;6.362;2023-04-03T10:01:22;14.60;61.10
51327;DHT22;37412;52.836;6.362;2023-04-03T10:04:12;13.60;60.30
51327;DHT22;37412;52.836;6.362;2023-04-03T10:06:58;13.40;60.50
51327;DHT22;37412;52.836;6.362;2023-04-03T10:09:55;13.00;58.50
51327;DHT22;37412;52.836;6.362;2023-04-03T10:12:41;13.10;61.30
51327;DHT22;37412;52.836;6.362;2023-04-03T10:15:26;12.60;57.60
51327;DHT22;37412;52.836;6.362;2023-04-03T10:18:40;12.10;62.60
51327;DHT22;37412;52.836;6.362;2023-04-03T10:21:44;11.90;62.80
51327;DHT22;37412;52.836;6.362;2023-04-03T10:24:57;11.90;61.80
51327;DHT22;37412;52.836;6.362;2023-04-03T10:27:53;12.40;61.80
51327;DHT22;37412;52.836;6.362;2023-04-03T10:34:33;13.00;59.90
51327;DHT22;37412;52.836;6.362;2023-04-03T10:37:24;13.10;63.30
51327;DHT22;37412;52.836;6.362;2023-04-03T10:40:18;13.00;61.40
51327;DHT22;37412;52.836;6.362;2023-04-03T10:52:41;13.60;61.10
51327;DHT22;37412;52.836;6.362;2023-04-03T11:02:00;13.00;62.70
51327;DHT22;37412;52.836;6.362;2023-04-03T11:04:51;12.60;62.00
51327;DHT22;37412;52.836;6.362;2023-04-03T11:07:43;12.30;59.20
51327;DHT22;37412;52.836;6.362;2023-04-03T11:10:42;11.90;63.90
51327;DHT22;37412;52.836;6.362;2023-04-03T11:16:38;11.40;63.50
51327;DHT22;37412;52.836;6.362;2023-04-03T11:19:36;11.30;62.20
51327;DHT22;37412;52.836;6.362;2023-04-03T11:25:23;10.90;64.50
51327;DHT22;37412;52.836;6.362;2023-04-03T11:28:11;11.00;64.80
51327;DHT22;37412;52.836;6.362;2023-04-03T11:31:02;10.90;65.10
51327;DHT22;37412;52.836;6.362;2023-04-03T11:36:44;11.00;63.30
51327;DHT22;37412;52.836;6.362;2023-04-03T11:39:31;11.10;64.40
51327;DHT22;37412;52.836;6.362;2023-04-03T11:42:36;11.40;63.60
51327;DHT22;37412;52.836;6.362;2023-04-03T11:54:01;11.80;62.20
51327;DHT22;37412;52.836;6.362;2023-04-03T11:57:22;11.90;63.20
51327;DHT22;37412;52.836;6.362;2023-04-03T12:09:00;11.80;64.10
51327;DHT22;37412;52.836;6.362;2023-04-03T12:11:45;11.80;64.40
51327;DHT22;37412;52.836;6.362;2023-04-03T12:14:32;11.70;64.90
51327;DHT22;37412;52.836;6.362;2023-04-03T12:17:22;11.70;63.70
51327;DHT22;37412;52.836;6.362;2023-04-03T12:20:45;11.80;61.30
51327;DHT22;37412;52.836;6.362;2023-04-03T12:23:25;11.80;64.60
51327;DHT22;37412;52.836;6.362;2023-04-03T12:26:19;12.00;64.20
51327;DHT22;37412;52.836;6.362;2023-04-03T12:29:27;12.00;63.30
51327;DHT22;37412;52.836;6.362;2023-04-03T12:46:50;12.20;65.40
51327;DHT22;37412;52.836;6.362;2023-04-03T12:49:38;12.30;67.80
51327;DHT22;37412;52.836;6.362;2023-04-03T12:52:44;12.50;65.60
51327;DHT22;37412;52.836;6.362;2023-04-03T12:55:31;12.60;65.90
51327;DHT22;37412;52.836;6.362;2023-04-03T13:01:13;12.70;66.70
51327;DHT22;37412;52.836;6.362;2023-04-03T13:04:00;12.50;66.20
51327;DHT22;37412;52.836;6.362;2023-04-03T13:06:46;12.50;65.60
51327;DHT22;37412;52.836;6.362;2023-04-03T13:09:32;12.60;66.60
51327;DHT22;37412;52.836;6.362;2023-04-03T13:12:18;12.60;66.00
51327;DHT22;37412;52.836;6.362;2023-04-03T13:15:12;12.70;64.50
51327;DHT22;37412;52.836;6.362;2023-04-03T13:17:59;12.70;65.50
51327;DHT22;37412;52.836;6.362;2023-04-03T13:20:47;12.80;66.80
51327;DHT22;37412;52.836;6.362;2023-04-03T13:23:35;12.90;63.50
51327;DHT22;37412;52.836;6.362;2023-04-03T13:26:21;13.00;62.80
51327;DHT22;37412;52.836;6.362;2023-04-03T13:29:17;12.80;66.00
51327;DHT22;37412;52.836;6.362;2023-04-03T13:32:05;12.60;63.40
51327;DHT22;37412;52.836;6.362;2023-04-03T13:34:51;12.30;65.00
51327;DHT22;37412;52.836;6.362;2023-04-03T13:37:37;12.10;64.20
51327;DHT22;37412;52.836;6.362;2023-04-03T13:40:23;12.10;65.90
51327;DHT22;37412;52.836;6.362;2023-04-03T13:43:20;12.30;69.00
51327;DHT22;37412;52.836;6.362;2023-04-03T13:48:56;12.60;66.40
51327;DHT22;37412;52.836;6.362;2023-04-03T13:51:42;12.50;65.00
51327;DHT22;37412;52.836;6.362;2023-04-03T13:54:30;12.50;63.60
51327;DHT22;37412;52.836;6.362;2023-04-03T13:57:17;12.60;66.80
51327;DHT22;37412;52.836;6.362;2023-04-03T14:00:19;12.70;68.30
51327;DHT22;37412;52.836;6.362;2023-04-03T14:03:13;12.70;65.00
51327;DHT22;37412;52.836;6.362;2023-04-03T14:05:59;12.70;65.20
51327;DHT22;37412;52.836;6.362;2023-04-03T14:08:46;12.60;64.00
51327;DHT22;37412;52.836;6.362;2023-04-03T14:11:34;12.60;66.60
51327;DHT22;37412;52.836;6.362;2023-04-03T14:14:22;12.80;66.20
51327;DHT22;37412;52.836;6.362;2023-04-03T14:17:19;12.50;65.40
51327;DHT22;37412;52.836;6.362;2023-04-03T14:20:06;12.50;66.70
51327;DHT22;37412;52.836;6.362;2023-04-03T14:22:52;12.40;62.10
51327;DHT22;37412;52.836;6.362;2023-04-03T14:25:42;12.40;67.30
51327;DHT22;37412;52.836;6.362;2023-04-03T14:28:28;12.50;62.50
51327;DHT22;37412;52.836;6.362;2023-04-03T14:31:14;12.40;65.90
51327;DHT22;37412;52.836;6.362;2023-04-03T14:34:00;12.40;67.00
51327;DHT22;37412;52.836;6.362;2023-04-03T14:36:47;12.30;65.30
51327;DHT22;37412;52.836;6.362;2023-04-03T14:39:33;12.30;65.60
51327;DHT22;37412;52.836;6.362;2023-04-03T14:42:23;12.30;63.70
51327;DHT22;37412;52.836;6.362;2023-04-03T14:45:11;12.30;66.90
51327;DHT22;37412;52.836;6.362;2023-04-03T14:47:57;12.30;68.10
51327;DHT22;37412;52.836;6.362;2023-04-03T14:50:47;12.20;62.90
51327;DHT22;37412;52.836;6.362;2023-04-03T14:53:33;12.10;64.30
51327;DHT22;37412;52.836;6.362;2023-04-03T14:56:21;11.90;63.50
51327;DHT22;37412;52.836;6.362;2023-04-03T14:59:09;11.80;66.50
51327;DHT22;37412;52.836;6.362;2023-04-03T15:01:55;11.90;67.70
51327;DHT22;37412;52.836;6.362;2023-04-03T15:04:41;11.90;65.90
51327;DHT22;37412;52.836;6.362;2023-04-03T15:07:27;11.80;65.40
51327;DHT22;37412;52.836;6.362;2023-04-03T15:13:00;11.60;66.40
51327;DHT22;37412;52.836;6.362;2023-04-03T15:15:46;11.50;63.30
51327;DHT22;37412;52.836;6.362;2023-04-03T15:18:36;11.50;65.40
51327;DHT22;37412;52.836;6.362;2023-04-03T15:21:23;11.40;67.30
51327;DHT22;37412;52.836;6.362;2023-04-03T15:24:09;11.40;67.40
51327;DHT22;37412;52.836;6.362;2023-04-03T15:26:55;11.40;68.20
51327;DHT22;37412;52.836;6.362;2023-04-03T15:29:41;11.40;67.40
51327;DHT22;37412;52.836;6.362;2023-04-03T15:32:28;11.30;65.90
51327;DHT22;37412;52.836;6.362;2023-04-03T15:35:14;11.30;64.20
51327;DHT22;37412;52.836;6.362;2023-04-03T15:38:00;11.30;65.10
51327;DHT22;37412;52.836;6.362;2023-04-03T15:40:46;11.10;67.60
51327;DHT22;37412;52.836;6.362;2023-04-03T15:43:32;11.00;65.40
51327;DHT22;37412;52.836;6.362;2023-04-03T15:46:19;11.00;67.50
51327;DHT22;37412;52.836;6.362;2023-04-03T15:49:05;10.90;66.30
51327;DHT22;37412;52.836;6.362;2023-04-03T15:51:51;10.90;67.80
51327;DHT22;37412;52.836;6.362;2023-04-03T15:54:37;10.90;68.90
51327;DHT22;37412;52.836;6.362;2023-04-03T15:57:23;10.90;67.40
51327;DHT22;37412;52.836;6.362;2023-04-03T16:00:11;10.70;67.80
51327;DHT22;37412;52.836;6.362;2023-04-03T16:02:59;10.60;68.00
51327;DHT22;37412;52.836;6.362;2023-04-03T16:05:47;10.50;68.90
51327;DHT22;37412;52.836;6.362;2023-04-03T16:08:33;10.50;65.90
51327;DHT22;37412;52.836;6.362;2023-04-03T16:11:22;10.40;66.50
51327;DHT22;37412;52.836;6.362;2023-04-03T16:14:07;10.20;67.30
51327;DHT22;37412;52.836;6.362;2023-04-03T16:16:53;10.10;68.40
51327;DHT22;37412;52.836;6.362;2023-04-03T16:19:39;10.00;69.80
51327;DHT22;37412;52.836;6.362;2023-04-03T16:22:25;10.10;68.60
51327;DHT22;37412;52.836;6.362;2023-04-03T16:25:12;10.10;68.70
51327;DHT22;37412;52.836;6.362;2023-04-03T16:27:58;10.10;67.70
51327;DHT22;37412;52.836;6.362;2023-04-03T16:30:44;10.00;67.80
51327;DHT22;37412;52.836;6.362;2023-04-03T16:33:31;10.00;68.40
51327;DHT22;37412;52.836;6.362;2023-04-03T16:36:17;9.90;68.00
51327;DHT22;37412;52.836;6.362;2023-04-03T16:39:03;9.90;69.60
51327;DHT22;37412;52.836;6.362;2023-04-03T16:41:49;9.90;69.70
51327;DHT22;37412;52.836;6.362;2023-04-03T16:44:35;9.80;69.10
51327;DHT22;37412;52.836;6.362;2023-04-03T16:47:21;9.80;70.30
51327;DHT22;37412;52.836;6.362;2023-04-03T16:50:07;9.80;72.30
51327;DHT22;37412;52.836;6.362;2023-04-03T16:52:53;9.80;72.50
51327;DHT22;37412;52.836;6.362;2023-04-03T16:55:39;9.80;71.30
51327;DHT22;37412;52.836;6.362;2023-04-03T16:58:25;9.70;70.60
51327;DHT22;37412;52.836;6.362;2023-04-03T17:01:13;9.60;71.90
51327;DHT22;37412;52.836;6.362;2023-04-03T17:03:59;9.60;71.70
51327;DHT22;37412;52.836;6.362;2023-04-03T17:06:45;9.40;71.00
51327;DHT22;37412;52.836;6.362;2023-04-03T17:09:31;9.40;71.40
51327;DHT22;37412;52.836;6.362;2023-04-03T17:12:17;9.40;71.80
51327;DHT22;37412;52.836;6.362;2023-04-03T17:15:03;9.50;70.10
51327;DHT22;37412;52.836;6.362;2023-04-03T17:17:50;9.10;71.60
51327;DHT22;37412;52.836;6.362;2023-04-03T17:20:36;9.10;71.70
51327;DHT22;37412;52.836;6.362;2023-04-03T17:23:24;9.00;73.00
51327;DHT22;37412;52.836;6.362;2023-04-03T17:26:10;9.00;74.20
51327;DHT22;37412;52.836;6.362;2023-04-03T17:28:56;9.00;75.80
51327;DHT22;37412;52.836;6.362;2023-04-03T17:31:45;8.90;75.00
51327;DHT22;37412;52.836;6.362;2023-04-03T17:34:31;8.80;75.30
51327;DHT22;37412;52.836;6.362;2023-04-03T17:37:18;8.80;74.80
51327;DHT22;37412;52.836;6.362;2023-04-03T17:40:04;8.60;74.00
51327;DHT22;37412;52.836;6.362;2023-04-03T17:42:50;8.60;76.20
51327;DHT22;37412;52.836;6.362;2023-04-03T17:45:37;8.50;75.90
51327;DHT22;37412;52.836;6.362;2023-04-03T17:48:23;8.40;76.10
51327;DHT22;37412;52.836;6.362;2023-04-03T17:51:12;8.30;77.20
51327;DHT22;37412;52.836;6.362;2023-04-03T17:53:57;8.20;75.90
51327;DHT22;37412;52.836;6.362;2023-04-03T17:56:43;8.10;76.60
51327;DHT22;37412;52.836;6.362;2023-04-03T17:59:32;8.10;76.60
51327;DHT22;37412;52.836;6.362;2023-04-03T18:02:18;7.90;77.00
51327;DHT22;37412;52.836;6.362;2023-04-03T18:05:04;7.90;78.50
51327;DHT22;37412;52.836;6.362;2023-04-03T18:07:54;7.70;78.60
51327;DHT22;37412;52.836;6.362;2023-04-03T18:10:41;8.70;80.10
51327;DHT22;37412;52.836;6.362;2023-04-03T18:13:26;7.60;79.40
51327;DHT22;37412;52.836;6.362;2023-04-03T18:16:13;7.50;80.50
51327;DHT22;37412;52.836;6.362;2023-04-03T18:18:59;7.40;80.70
51327;DHT22;37412;52.836;6.362;2023-04-03T18:21:45;7.20;81.30
51327;DHT22;37412;52.836;6.362;2023-04-03T18:24:35;7.10;82.60
51327;DHT22;37412;52.836;6.362;2023-04-03T18:27:25;7.10;83.10
51327;DHT22;37412;52.836;6.362;2023-04-03T18:30:14;7.00;83.80
51327;DHT22;37412;52.836;6.362;2023-04-03T18:33:01;6.80;84.70
51327;DHT22;37412;52.836;6.362;2023-04-03T18:35:47;6.70;84.80
51327;DHT22;37412;52.836;6.362;2023-04-03T18:38:34;6.60;85.70
51327;DHT22;37412;52.836;6.362;2023-04-03T18:41:26;6.40;85.50
51327;DHT22;37412;52.836;6.362;2023-04-03T18:44:16;6.40;86.90
51327;DHT22;37412;52.836;6.362;2023-04-03T18:47:05;6.30;87.80
51327;DHT22;37412;52.836;6.362;2023-04-03T18:49:53;6.20;88.90
51327;DHT22;37412;52.836;6.362;2023-04-03T18:52:39;6.10;88.70
51327;DHT22;37412;52.836;6.362;2023-04-03T18:55:25;6.00;89.30
51327;DHT22;37412;52.836;6.362;2023-04-03T18:58:11;6.00;90.10
51327;DHT22;37412;52.836;6.362;2023-04-03T19:00:57;5.90;90.10
51327;DHT22;37412;52.836;6.362;2023-04-03T19:03:44;5.90;90.70
51327;DHT22;37412;52.836;6.362;2023-04-03T19:06:32;5.80;91.20
51327;DHT22;37412;52.836;6.362;2023-04-03T19:09:19;5.70;91.50
51327;DHT22;37412;52.836;6.362;2023-04-03T19:12:06;5.80;91.90
51327;DHT22;37412;52.836;6.362;2023-04-03T19:14:52;5.60;91.90
51327;DHT22;37412;52.836;6.362;2023-04-03T19:17:38;5.60;92.40
51327;DHT22;37412;52.836;6.362;2023-04-03T19:20:24;5.50;93.10
51327;DHT22;37412;52.836;6.362;2023-04-03T19:23:10;5.50;93.40
51327;DHT22;37412;52.836;6.362;2023-04-03T19:26:03;5.40;93.90
51327;DHT22;37412;52.836;6.362;2023-04-03T19:28:50;5.40;94.10